Flight Track Log - Related Links

Times and Time Zones

All times are in EDT time to prevent confusion due to time zone crossing. See the JZA8899 flight status page for this flight to view local times or setup timezone preferences in your user account.

Time Position Orientation Groundspeed Altitude Reporting Facility
EDT Latitude Longitude Course Direction KTS MPH feet Rate Location/Type
Wed 11:19:21 AM 53.3167 -60.4167 199° South 90 104 200  Level Gander Center
Wed 11:20:21 AM 53.2833 -60.4667 222° Southwest 170 196 3,100 3,000 Climbing Gander Center
Wed 11:21:21 AM 53.2500 -60.5333 230° Southwest 160 184 6,200 2,400 Climbing Gander Center
Wed 11:22:21 AM 53.1833 -60.5500 189° South 220 253 7,900 2,450 Climbing Gander Center
Wed 11:23:00 AM 52.9900 -60.4467 197° South  Level FlightAware
Wed 11:23:21 AM 53.1167 -60.5833 197° South 250 288 11,100  Level Gander Center
Wed 11:24:00 AM 52.8903 -60.5018 199° South  Level FlightAware
Wed 11:24:21 AM 53.0500 -60.6167 197° South 260 299 13,600  Level Gander Center
Wed 11:25:21 AM 52.9833 -60.6500 197° South 260 299 15,800 1,950 Climbing Gander Center
Wed 11:26:21 AM 52.9000 -60.6667 187° South 280 322 17,500 1,513 Climbing Gander Center
Wed 11:27:16 AM 52.8333 -60.7167 204° Southwest 290 334 18,700 1,722 Climbing Moncton Center
Wed 11:28:16 AM 52.7333 -60.7500 191° South 310 357 20,800 1,750 Climbing Moncton Center
Wed 11:29:16 AM 52.6667 -60.7833 197° South 310 357 22,200 1,350 Climbing Moncton Center
Wed 11:30:16 AM 52.5667 -60.8167 191° South 320 368 23,500 1,300 Climbing Moncton Center
Wed 11:31:16 AM 52.4833 -60.8500 194° South 330 380 24,800 1,250 Climbing Moncton Center
Wed 11:32:16 AM 52.3833 -60.8833 192° South 330 380 26,000 1,050 Climbing Moncton Center
Wed 11:33:16 AM 52.3000 -60.9167 194° South 340 391 26,900 950 Climbing Moncton Center
Wed 11:34:16 AM 52.2000 -60.9500 192° South 350 403 27,900 800 Climbing Moncton Center
Wed 11:35:16 AM 52.1000 -61.0000 197° South 360 414 28,500 600 Climbing Moncton Center
Wed 11:36:16 AM 52.0000 -61.0500 197° South 360 414 29,100 700 Climbing Moncton Center
Wed 11:37:16 AM 51.9000 -61.0833 192° South 370 426 29,900 700 Climbing Moncton Center
Wed 11:38:16 AM 51.8000 -61.1167 192° South 370 426 30,500 600 Climbing Moncton Center
Wed 11:39:16 AM 51.7000 -61.1500 192° South 380 437 31,100 550 Climbing Moncton Center
Wed 11:40:16 AM 51.6000 -61.2167 202° Southwest 380 437 31,600 700 Climbing Moncton Center
Wed 11:41:16 AM 51.5000 -61.2500 192° South 390 449 32,500 750 Climbing Moncton Center
Wed 11:42:16 AM 51.4000 -61.2833 192° South 380 437 33,100 750 Climbing Moncton Center
Wed 11:43:16 AM 51.3000 -61.3167 192° South 370 426 34,000 450 Climbing Moncton Center
Wed 11:44:16 AM 51.2000 -61.3833 203° Southwest 370 426 34,000  Level Moncton Center
Wed 11:45:16 AM 51.1000 -61.4167 192° South 370 426 34,000  Level Moncton Center
Wed 11:46:16 AM 51.0000 -61.4500 192° South 370 426 34,000  Level Moncton Center
Wed 11:47:16 AM 50.9000 -61.4833 192° South 370 426 34,000  Level Moncton Center
Wed 11:48:16 AM 50.8000 -61.5333 198° South 370 426 34,000  Level Moncton Center
Wed 11:49:16 AM 50.6833 -61.5667 190° South 380 437 34,000  Level Moncton Center
Wed 11:50:16 AM 50.6000 -61.6000 194° South 360 414 34,000  Level Moncton Center
Wed 11:51:16 AM 50.4833 -61.6333 190° South 370 426 34,000  Level Moncton Center
Wed 11:52:16 AM 50.4000 -61.7000 207° Southwest 370 426 34,000  Level Moncton Center
Wed 11:53:16 AM 50.2833 -61.7167 185° South 400 460 34,000  Level Moncton Center
Wed 11:54:16 AM 50.1833 -61.7500 192° South 370 426 34,000  Level Moncton Center
Wed 11:55:16 AM 50.0833 -61.7833 192° South 370 426 34,000 -550 Level Moncton Center
Wed 11:56:16 AM 49.9833 -61.8167 192° South 380 437 32,900 -1,000 Descending Moncton Center
Wed 11:57:16 AM 49.8667 -61.8833 200° South 420 483 32,000 -450 Descending Moncton Center
Wed 11:58:16 AM 49.7500 -61.9167 190° South 430 495 32,000 -700 Level Moncton Center
Wed 11:59:16 AM 49.6333 -61.9667 196° South 430 495 30,600 -1,000 Descending Moncton Center
Wed 12:00:16 PM 49.5167 -62.0000 191° South 460 529 30,000 -300 Descending Moncton Center
Wed 12:01:16 PM 49.4000 -62.0500 196° South 420 483 30,000  Level Moncton Center
Wed 12:02:16 PM 49.2833 -62.0833 191° South 410 472 30,000  Level Moncton Center
Wed 12:03:16 PM 49.1667 -62.1167 191° South 400 460 30,000  Level Moncton Center
Wed 12:04:16 PM 49.0667 -62.1667 198° South 400 460 30,000  Level Moncton Center
Wed 12:05:16 PM 48.9667 -62.2000 192° South 390 449 30,000  Level Moncton Center
Wed 12:06:16 PM 48.8667 -62.2333 192° South 380 437 30,000  Level Moncton Center
Wed 12:07:16 PM 48.7500 -62.2667 191° South 370 426 30,000  Level Moncton Center
Wed 12:08:16 PM 48.6667 -62.3167 202° Southwest 370 426 30,000  Level Moncton Center
Wed 12:09:16 PM 48.5667 -62.3500 192° South 360 414 30,000  Level Moncton Center
Wed 12:10:16 PM 48.4667 -62.3833 192° South 360 414 30,000  Level Moncton Center
Wed 12:11:16 PM 48.3667 -62.4000 186° South 360 414 30,000  Level Moncton Center
Wed 12:12:16 PM 48.2667 -62.4667 204° Southwest 360 414 30,000  Level Moncton Center
Wed 12:13:16 PM 48.1667 -62.4833 186° South 360 414 30,000  Level Moncton Center
Wed 12:14:16 PM 48.0667 -62.5167 193° South 370 426 30,000  Level Moncton Center
Wed 12:15:16 PM 47.9667 -62.5500 193° South 370 426 30,000  Level Moncton Center
Wed 12:16:16 PM 47.8667 -62.5833 193° South 370 426 30,000  Level Moncton Center
Wed 12:17:16 PM 47.7667 -62.6333 199° South 380 437 30,000  Level Moncton Center
Wed 12:18:16 PM 47.6500 -62.6500 185° South 380 437 30,000  Level Moncton Center
Wed 12:19:16 PM 47.5500 -62.6833 193° South 380 437 30,000  Level Moncton Center
Wed 12:21:16 PM 47.3500 -62.7667 196° South 380 437 30,000  Level Moncton Center
Wed 12:22:16 PM 47.2500 -62.8000 193° South 380 437 30,000  Level Moncton Center
Wed 12:23:16 PM 47.1333 -62.8167 186° South 380 437 30,000  Level Moncton Center
Wed 12:24:16 PM 47.0333 -62.8500 193° South 380 437 30,000  Level Moncton Center
Wed 12:25:16 PM 46.9333 -62.9000 199° South 380 437 30,000 -100 Level Moncton Center
Wed 12:26:16 PM 46.8333 -62.9333 193° South 380 437 29,800 -350 Descending Moncton Center
Wed 12:27:16 PM 46.7167 -62.9500 186° South 390 449 29,300 -500 Descending Moncton Center
Wed 12:28:16 PM 46.6167 -63.0000 199° South 400 460 28,800 -500 Descending Moncton Center
Wed 12:29:16 PM 46.5000 -63.0333 191° South 410 472 28,300 -500 Descending Moncton Center
Wed 12:30:16 PM 46.3833 -63.0667 191° South 410 472 27,800 -500 Descending Moncton Center
Wed 12:31:16 PM 46.2667 -63.1167 197° South 410 472 27,300 -500 Descending Moncton Center
Wed 12:32:16 PM 46.1500 -63.1333 186° South 420 483 26,800 -500 Descending Moncton Center
Wed 12:33:16 PM 46.0333 -63.1667 191° South 420 483 26,300 -850 Descending Moncton Center
Wed 12:34:16 PM 45.9333 -63.1667 180° South 420 483 25,100 -2,200 Descending Moncton Center
Wed 12:35:16 PM 45.8167 -63.2000 191° South 410 472 21,900 -3,050 Descending Moncton Center
Wed 12:36:16 PM 45.7167 -63.2167 187° South 390 449 19,000 -2,900 Descending Moncton Center
Wed 12:37:16 PM 45.6000 -63.2500 191° South 370 426 16,100 -2,900 Descending Moncton Center
Wed 12:38:16 PM 45.5167 -63.2500 180° South 340 391 13,200 -2,450 Descending Moncton Center
Wed 12:39:16 PM 45.4333 -63.2833 196° South 310 357 11,200 -1,700 Descending Moncton Center
Wed 12:40:16 PM 45.3667 -63.2833 180° South 260 299 9,800 -1,550 Descending Moncton Center
Wed 12:41:16 PM 45.3000 -63.2833 180° South 240 276 8,100 -1,800 Descending Moncton Center
Wed 12:42:16 PM 45.2333 -63.3000 190° South 230 265 6,200 -1,300 Descending Moncton Center
Wed 12:43:16 PM 45.1833 -63.3000 180° South 200 230 5,500 -1,000 Descending Moncton Center
Wed 12:44:16 PM 45.1333 -63.3000 180° South 180 207 4,200 -1,200 Descending Moncton Center
Wed 12:45:16 PM 45.0833 -63.3000 180° South 170 196 3,100 -600 Descending Moncton Center
Wed 12:46:16 PM 45.0333 -63.3333 205° Southwest 160 184 3,000 -50 Descending Moncton Center
Wed 12:47:16 PM 45.0000 -63.3500 199° South 150 173 3,000  Level Moncton Center
Wed 12:48:16 PM 44.9667 -63.3833 215° Southwest 140 161 3,000 -350 Level Moncton Center
Wed 12:49:16 PM 44.9500 -63.4333 245° Southwest 120 138 2,300 -600 Descending Moncton Center
Wed 12:50:16 PM 44.9167 -63.4500 199° South 110 127 1,800 -500 Descending Moncton Center

Login

Don't have an account? Register now (free) for customized features, flight alerts, and more!